Time;durP1;ratioP1;P1;durP2;ratioP2;P2;SDS_P1;SDS_P2;PMS_P1;PMS_P2;Temp;Humidity;BMP_temperature;BMP_pressure;BME280_temperature;BME280_humidity;BME280_pressure;Samples;Min_cycle;Max_cycle;Signal;HPM_P1;HPM_P2
2022/12/30 00:01:42;;;;;;;17.20;9.87;;;;;;;-143.84;71.61;45148.09;5053217;28;20809;-83
2022/12/30 00:04:10;;;;;;;16.17;10.33;;;;;;;-143.84;71.19;45148.09;5053175;28;20427;-83
2022/12/30 00:06:37;;;;;;;10.07;9.00;;;;;;;-143.84;71.23;45151.91;5052534;28;20432;-83
2022/12/30 00:09:05;;;;;;;10.90;9.10;;;;;;;-143.84;70.99;45174.75;5052264;28;20509;-83
2022/12/30 00:11:34;;;;;;;10.87;8.10;;;;;;;-143.84;70.74;45151.91;5050623;28;20510;-82
2022/12/30 00:33:38;;;;;;;12.57;9.83;;;;;;;-143.84;70.51;45150.00;5052438;28;20507;-83
2022/12/30 00:36:05;;;;;;;12.40;9.97;;;;;;;-143.84;70.47;45148.09;5052387;28;20420;-83
2022/12/30 00:38:32;;;;;;;10.27;9.17;;;;;;;-143.84;70.66;45151.91;5052162;28;20501;-83
2022/12/30 00:43:45;;;;;;;13.77;9.53;;;;;;;-143.84;70.18;45207.13;5052426;28;20418;-83
2022/12/30 00:46:13;;;;;;;11.70;8.37;;;;;;;-143.84;70.37;45138.56;5052449;28;20429;-83
2022/12/30 00:56:54;;;;;;;11.80;10.30;;;;;;;-143.84;69.13;45159.50;5051745;28;20487;-83
2022/12/30 00:59:21;;;;;;;16.77;12.57;;;;;;;-143.84;69.23;45163.31;5051101;28;20507;-83
2022/12/30 01:01:49;;;;;;;12.20;10.53;;;;;;;-143.84;69.03;45136.66;5051457;28;20452;-83
2022/12/30 01:04:16;;;;;;;11.27;9.00;;;;;;;-143.84;69.49;45146.19;5051381;28;20432;-83
2022/12/30 01:06:43;;;;;;;13.87;8.80;;;;;;;-143.84;69.38;45161.41;5051082;28;20498;-83
2022/12/30 01:09:10;;;;;;;13.00;9.00;;;;;;;-143.84;69.38;45163.31;5051292;28;20432;-83
2022/12/30 01:11:38;;;;;;;11.27;8.30;;;;;;;-143.84;69.32;45167.13;5050965;28;20441;-83
2022/12/30 01:14:06;;;;;;;11.33;8.53;;;;;;;-143.84;69.37;45159.50;5050824;28;20472;-83
2022/12/30 01:16:34;;;;;;;16.80;9.33;;;;;;;-143.84;69.32;45144.28;5051487;28;20482;-82
2022/12/30 01:19:01;;;;;;;11.13;8.77;;;;;;;-143.84;69.12;45178.56;5051020;28;20443;-82
2022/12/30 01:21:28;;;;;;;11.97;8.93;;;;;;;-143.84;69.21;45140.47;5051152;28;20960;-82
2022/12/30 01:23:56;;;;;;;9.80;8.80;;;;;;;-143.84;69.39;45144.28;5051270;28;20429;-82
2022/12/30 01:26:23;;;;;;;10.20;8.57;;;;;;;-143.84;69.38;45132.84;5051821;28;20436;-83
2022/12/30 01:28:50;;;;;;;12.77;9.40;;;;;;;-143.84;69.30;45153.81;5054744;28;20413;-83
2022/12/30 01:31:18;;;;;;;9.53;8.53;;;;;;;-143.84;69.26;45157.59;5054707;28;20450;-83
2022/12/30 01:33:45;;;;;;;11.07;9.33;;;;;;;-143.84;69.63;45134.75;5054163;28;20440;-82
2022/12/30 01:36:12;;;;;;;10.33;9.23;;;;;;;-143.84;69.40;45140.47;5054328;28;20440;-82
2022/12/30 01:38:39;;;;;;;12.53;9.40;;;;;;;-143.84;69.61;45157.59;5054228;28;21023;-82
2022/12/30 01:41:07;;;;;;;12.03;8.27;;;;;;;-143.84;69.22;45146.19;5054251;28;20498;-82
2022/12/30 01:43:43;;;;;;;10.23;8.97;;;;;;;-143.84;69.44;45121.44;5054445;28;20425;-82
2022/12/30 01:46:13;;;;;;;10.20;9.20;;;;;;;-143.84;69.12;45167.13;5054062;28;20520;-82
2022/12/30 01:48:42;;;;;;;9.90;8.90;;;;;;;-143.84;69.01;45155.69;5054039;28;20465;-82
2022/12/30 01:51:14;;;;;;;8.67;7.60;;;;;;;-143.84;69.00;45151.91;5053284;28;20512;-82
2022/12/30 01:53:44;;;;;;;9.47;8.47;;;;;;;-143.84;68.71;45157.59;5053985;28;20494;-80
2022/12/30 01:58:59;;;;;;;10.80;8.60;;;;;;;-143.84;69.01;45142.38;5110220;27;20542;-81
2022/12/30 02:01:27;;;;;;;10.00;8.87;;;;;;;-143.84;69.44;45170.94;5110487;28;20438;-81
2022/12/30 02:04:01;;;;;;;12.10;9.70;;;;;;;-143.84;69.48;45178.56;5109879;28;20430;-81
2022/12/30 02:06:35;;;;;;;11.47;9.50;;;;;;;-143.84;70.03;45144.28;5110205;28;20973;-80
2022/12/30 02:09:02;;;;;;;12.90;10.40;;;;;;;-143.84;70.17;45146.19;5109825;28;20495;-80
2022/12/30 02:11:30;;;;;;;18.80;11.10;;;;;;;-143.84;70.13;45159.50;5109678;28;20449;-81
2022/12/30 02:13:58;;;;;;;13.23;10.93;;;;;;;-143.84;70.46;45184.25;5110089;28;20418;-81
2022/12/30 02:16:40;;;;;;;15.43;11.07;;;;;;;-143.84;70.48;45165.22;5109700;28;20449;-81
2022/12/30 02:19:33;;;;;;;13.70;11.13;;;;;;;-143.84;70.77;45153.81;5110016;28;20443;-81
2022/12/30 02:22:08;;;;;;;15.40;12.30;;;;;;;-143.84;70.58;45155.69;5109977;28;20422;-81
2022/12/30 02:25:02;;;;;;;15.20;12.77;;;;;;;-143.84;70.38;45161.41;5109851;28;20430;-81
2022/12/30 02:28:04;;;;;;;11.00;9.73;;;;;;;-143.84;70.01;45163.31;5109590;28;20494;-81
2022/12/30 02:30:51;;;;;;;16.90;10.83;;;;;;;-143.84;69.92;45155.69;5109342;28;21248;-80
2022/12/30 02:33:27;;;;;;;17.73;10.80;;;;;;;-143.84;69.68;45174.75;5109432;28;20431;-81
2022/12/30 02:36:04;;;;;;;19.97;11.50;;;;;;;-143.84;69.93;45186.16;5109347;28;20446;-80
2022/12/30 02:38:43;;;;;;;16.73;11.00;;;;;;;-143.84;69.86;45150.00;5109158;28;20492;-80
2022/12/30 02:46:57;;;;;;;14.60;11.20;;;;;;;-143.84;69.67;45153.81;5109496;28;20428;-80
2022/12/30 02:49:26;;;;;;;16.33;11.73;;;;;;;-143.84;69.91;45148.09;5109141;28;20489;-81
2022/12/30 02:54:39;;;;;;;15.50;11.60;;;;;;;-143.84;70.60;45159.50;5109009;28;20493;-82
2022/12/30 02:57:23;;;;;;;16.80;13.03;;;;;;;-143.84;70.52;45155.69;5108376;28;20486;-83
2022/12/30 03:05:43;;;;;;;16.23;11.23;;;;;;;-143.84;71.05;45144.28;5108898;28;20426;-82
2022/12/30 03:08:23;;;;;;;16.40;11.73;;;;;;;-143.84;70.91;45163.31;5107051;28;20418;-82
2022/12/30 03:11:13;;;;;;;20.10;12.43;;;;;;;-143.84;70.62;45150.00;5094942;28;20932;-82
2022/12/30 03:13:49;;;;;;;16.07;12.57;;;;;;;-143.84;70.32;45151.91;5095099;28;20418;-82
2022/12/30 03:16:22;;;;;;;15.30;11.93;;;;;;;-143.84;70.41;45167.13;5095115;28;20927;-82
2022/12/30 03:18:52;;;;;;;15.47;12.00;;;;;;;-143.84;70.36;45167.13;5094333;28;20991;-82
2022/12/30 03:21:23;;;;;;;15.30;11.87;;;;;;;-143.84;70.04;45167.13;5094632;28;20455;-82
2022/12/30 03:27:04;;;;;;;20.00;12.97;;;;;;;-143.84;70.72;45150.00;5051221;28;20448;-82
2022/12/30 03:29:37;;;;;;;16.10;12.40;;;;;;;-143.84;70.68;45146.19;5088446;28;20948;-81
2022/12/30 03:32:06;;;;;;;15.53;12.10;;;;;;;-143.84;70.71;45153.81;5094539;28;20441;-80
2022/12/30 03:34:35;;;;;;;14.07;10.77;;;;;;;-143.84;70.64;45176.66;5094757;28;20982;-80
2022/12/30 03:37:11;;;;;;;13.50;11.00;;;;;;;-143.84;70.70;45188.06;5094472;28;20492;-80
2022/12/30 03:39:42;;;;;;;16.43;11.97;;;;;;;-143.84;70.43;45159.50;5094547;28;20813;-80
2022/12/30 03:42:10;;;;;;;22.20;13.77;;;;;;;-143.84;70.04;45161.41;5094595;28;20434;-81
2022/12/30 03:44:42;;;;;;;16.80;12.13;;;;;;;-143.84;69.71;45170.94;5094399;28;20438;-80
2022/12/30 03:47:13;;;;;;;18.90;13.30;;;;;;;-143.84;69.51;45167.13;5094375;28;20956;-80
2022/12/30 03:49:43;;;;;;;15.37;12.57;;;;;;;-143.84;69.84;45161.41;5094288;28;20523;-80
2022/12/30 03:52:10;;;;;;;18.27;12.73;;;;;;;-143.84;69.97;45186.16;5094537;28;20497;-80
2022/12/30 03:54:38;;;;;;;20.97;13.27;;;;;;;-143.84;70.03;45157.59;5094327;28;20491;-80
2022/12/30 03:57:06;;;;;;;16.27;12.83;;;;;;;-143.84;70.68;45148.09;5093915;28;20485;-80
2022/12/30 03:59:33;;;;;;;19.23;13.40;;;;;;;-143.84;70.74;45129.03;5094136;28;20431;-81
2022/12/30 04:02:00;;;;;;;15.80;12.87;;;;;;;-143.84;70.97;45163.31;5094299;28;20832;-80
2022/12/30 04:04:28;;;;;;;18.57;13.27;;;;;;;-143.84;71.38;45161.41;5093817;28;20434;-80
2022/12/30 04:06:56;;;;;;;20.60;12.17;;;;;;;-143.84;71.69;45159.50;5094384;28;21013;-83
2022/12/30 04:09:24;;;;;;;23.57;13.00;;;;;;;-143.84;72.08;45174.75;5093984;28;20454;-82
2022/12/30 04:11:51;;;;;;;22.63;14.93;;;;;;;-143.84;72.14;45169.03;5093805;28;20428;-82
2022/12/30 04:14:19;;;;;;;17.50;13.83;;;;;;;-143.84;72.55;45142.38;5094053;28;20445;-83
2022/12/30 04:16:46;;;;;;;23.90;14.20;;;;;;;-143.84;72.80;45155.69;5093756;28;20440;-82
2022/12/30 04:19:13;;;;;;;31.10;13.30;;;;;;;-143.84;73.08;45159.50;5093896;28;20538;-83
2022/12/30 04:21:41;;;;;;;25.97;13.67;;;;;;;-143.84;73.33;45130.94;5092638;28;20441;-82
2022/12/30 04:24:09;;;;;;;18.97;12.47;;;;;;;-143.84;73.00;45167.13;5093649;28;20426;-82
2022/12/30 04:26:37;;;;;;;20.30;14.47;;;;;;;-143.84;74.00;45155.69;5093939;28;20437;-83
2022/12/30 04:29:04;;;;;;;19.23;13.40;;;;;;;-143.84;74.62;45165.22;5093519;28;20439;-81
2022/12/30 04:31:31;;;;;;;15.30;12.50;;;;;;;-143.84;74.92;45150.00;5093445;28;20488;-82
2022/12/30 04:33:58;;;;;;;15.87;12.90;;;;;;;-143.84;75.18;45178.56;5093684;28;20798;-82
2022/12/30 04:36:25;;;;;;;19.13;12.87;;;;;;;-143.84;75.61;45138.56;5093391;28;20434;-82
2022/12/30 04:38:53;;;;;;;22.70;13.47;;;;;;;-143.84;76.09;45148.09;5093287;28;20464;-82
2022/12/30 04:41:22;;;;;;;20.03;14.37;;;;;;;-143.84;76.56;45142.38;5093523;28;20437;-82
2022/12/30 04:43:49;;;;;;;20.23;14.60;;;;;;;-143.84;76.65;45148.09;5093489;28;20437;-82
2022/12/30 04:46:16;;;;;;;17.87;14.27;;;;;;;-143.84;77.02;45132.84;5093085;28;20976;-82
2022/12/30 04:48:43;;;;;;;19.67;14.07;;;;;;;-143.84;76.51;45142.38;5093037;28;20487;-82
2022/12/30 04:51:10;;;;;;;19.23;12.43;;;;;;;-143.84;76.84;45163.31;5093334;28;20481;-82
2022/12/30 04:53:37;;;;;;;26.73;15.47;;;;;;;-143.84;76.78;45140.47;5092996;28;20516;-82
2022/12/30 04:56:05;;;;;;;18.67;13.30;;;;;;;-143.84;76.59;45136.66;5092971;28;20442;-82
2022/12/30 04:58:33;;;;;;;17.80;11.97;;;;;;;-143.84;76.42;45142.38;5092564;28;20553;-82
2022/12/30 05:01:01;;;;;;;13.63;10.90;;;;;;;-143.84;76.52;45144.28;5093094;28;20441;-82
2022/12/30 05:03:28;;;;;;;14.90;11.43;;;;;;;-143.84;76.79;45144.28;5092837;28;20849;-82
2022/12/30 05:05:56;;;;;;;14.73;10.60;;;;;;;-143.84;76.53;45130.94;5092751;28;20498;-82
2022/12/30 05:08:23;;;;;;;20.07;10.60;;;;;;;-143.84;76.12;45132.84;5092665;28;20433;-82
2022/12/30 05:10:50;;;;;;;15.27;10.63;;;;;;;-143.84;76.02;45140.47;5093060;28;20430;-82
2022/12/30 05:13:17;;;;;;;15.90;10.97;;;;;;;-143.84;75.51;45140.47;5092910;28;21023;-82
2022/12/30 05:15:46;;;;;;;13.30;10.80;;;;;;;-143.84;74.72;45150.00;5092705;28;20437;-82
2022/12/30 05:18:13;;;;;;;14.80;10.97;;;;;;;-143.84;74.67;45148.09;5092561;28;21059;-82
2022/12/30 05:20:40;;;;;;;12.73;9.67;;;;;;;-143.84;74.67;45144.28;5092504;28;20433;-82
2022/12/30 05:26:13;;;;;;;11.93;9.43;;;;;;;-143.84;74.27;45170.94;5092558;28;20437;-82
2022/12/30 05:28:36;;;;;;;13.30;9.57;;;;;;;-143.84;74.02;45142.38;5091599;28;20453;-82
2022/12/30 05:31:04;;;;;;;19.20;8.90;;;;;;;-143.84;74.08;45121.44;5092349;28;20955;-81
2022/12/30 05:33:32;;;;;;;11.90;10.10;;;;;;;-143.84;73.95;45140.47;5092484;28;21184;-82
2022/12/30 05:35:59;;;;;;;10.83;9.00;;;;;;;-143.84;73.33;45148.09;5092391;28;20436;-82
2022/12/30 05:38:26;;;;;;;15.30;10.83;;;;;;;-143.84;73.06;45165.22;5092572;28;20538;-82
2022/12/30 05:40:54;;;;;;;13.50;10.03;;;;;;;-143.84;72.94;45170.94;5092408;28;20988;-82
2022/12/30 05:43:21;;;;;;;13.03;9.23;;;;;;;-143.84;72.88;45144.28;5092360;28;20437;-80
2022/12/30 05:45:48;;;;;;;17.60;9.10;;;;;;;-143.84;72.50;45163.31;5092765;28;20954;-82
2022/12/30 05:48:17;;;;;;;9.90;8.63;;;;;;;-143.84;72.33;45134.75;5092825;28;20487;-82
2022/12/30 05:50:48;;;;;;;12.30;9.40;;;;;;;-143.84;72.61;45169.03;5092348;28;20445;-82
2022/12/30 05:53:15;;;;;;;11.53;8.83;;;;;;;-143.84;72.79;45136.66;5092883;28;20495;-80
2022/12/30 05:55:42;;;;;;;21.73;8.90;;;;;;;-143.84;72.57;45169.03;5092942;28;20494;-80
2022/12/30 05:58:10;;;;;;;16.10;8.30;;;;;;;-143.84;72.85;45167.13;5091811;28;20485;-80
2022/12/30 06:00:37;;;;;;;10.90;8.00;;;;;;;-143.84;72.52;45161.41;5092621;28;20438;-80
2022/12/30 06:03:04;;;;;;;13.90;8.60;;;;;;;-143.84;72.22;45170.94;5092898;28;20424;-80
2022/12/30 06:05:32;;;;;;;10.03;8.23;;;;;;;-143.84;71.85;45153.81;5092269;28;20471;-79
2022/12/30 06:07:59;;;;;;;10.40;7.83;;;;;;;-143.84;71.35;45167.13;5092739;28;20499;-80
2022/12/30 06:10:26;;;;;;;12.33;8.70;;;;;;;-143.84;71.45;45148.09;5092484;28;20525;-80
2022/12/30 06:12:54;;;;;;;13.23;8.60;;;;;;;-143.84;71.11;45159.50;5092228;28;20559;-79
2022/12/30 06:15:21;;;;;;;12.43;8.03;;;;;;;-143.84;71.04;45151.91;5092205;28;20423;-78
2022/12/30 06:17:48;;;;;;;10.47;9.07;;;;;;;-143.84;70.68;45180.47;5092326;28;20503;-81
2022/12/30 06:20:15;;;;;;;16.40;9.37;;;;;;;-143.84;70.34;45151.91;5092174;28;20425;-80
2022/12/30 06:22:44;;;;;;;13.23;8.90;;;;;;;-143.84;70.14;45151.91;5092309;28;20487;-81
2022/12/30 06:25:12;;;;;;;22.50;14.63;;;;;;;-143.84;69.80;45161.41;5092245;28;20434;-82
2022/12/30 06:27:39;;;;;;;17.73;12.83;;;;;;;-143.84;69.40;45169.03;5092166;28;20521;-81
2022/12/30 06:30:08;;;;;;;13.60;10.90;;;;;;;-143.84;69.12;45176.66;5091700;28;20972;-82
2022/12/30 06:32:35;;;;;;;17.20;12.27;;;;;;;-143.84;69.05;45155.69;5091352;28;20439;-82
2022/12/30 06:35:02;;;;;;;14.27;10.20;;;;;;;-143.84;68.64;45163.31;5091444;28;20444;-82
2022/12/30 06:37:29;;;;;;;16.10;9.40;;;;;;;-143.84;68.11;45159.50;5090467;28;20440;-81
2022/12/30 06:39:58;;;;;;;33.50;11.80;;;;;;;-143.84;68.35;45150.00;5089566;28;21433;-81
2022/12/30 06:42:25;;;;;;;13.37;9.70;;;;;;;-143.84;68.16;45157.59;5089428;28;20443;-81
2022/12/30 06:44:52;;;;;;;7.93;7.10;;;;;;;-143.84;67.61;45138.56;5094155;28;20428;-81
2022/12/30 06:47:19;;;;;;;13.57;8.00;;;;;;;-143.84;66.94;45176.66;5095919;28;20778;-82
2022/12/30 06:49:46;;;;;;;10.03;8.93;;;;;;;-143.84;65.71;45170.94;5095528;28;20432;-80
2022/12/30 06:52:13;;;;;;;9.07;7.77;;;;;;;-143.84;65.66;45148.09;5095458;28;20446;-81
2022/12/30 06:54:43;;;;;;;7.30;6.70;;;;;;;-143.84;64.65;45146.19;5095366;28;20500;-81
2022/12/30 06:57:11;;;;;;;6.83;6.20;;;;;;;-143.84;64.35;45138.56;5095081;28;21023;-82
2022/12/30 06:59:39;;;;;;;8.63;7.73;;;;;;;-143.84;62.83;45193.78;5095419;28;20871;-82
2022/12/30 07:02:06;;;;;;;10.13;7.27;;;;;;;-143.84;62.49;45172.84;5095445;28;20471;-82
2022/12/30 07:04:33;;;;;;;10.40;7.67;;;;;;;-143.84;61.18;45140.47;5095489;28;20429;-82
2022/12/30 07:07:00;;;;;;;12.40;6.57;;;;;;;-143.84;60.37;45150.00;5095203;28;20412;-82
2022/12/30 07:09:28;;;;;;;13.17;8.20;;;;;;;-143.84;59.85;45132.84;5095159;28;20431;-81
2022/12/30 07:11:55;;;;;;;8.10;6.50;;;;;;;-143.84;59.01;45136.66;5095059;28;20438;-81
2022/12/30 07:14:23;;;;;;;11.50;7.37;;;;;;;-143.84;57.76;45155.69;5095283;28;20461;-81
2022/12/30 07:16:50;;;;;;;16.40;7.87;;;;;;;-143.84;57.35;45159.50;5094920;28;20440;-81
2022/12/30 07:19:18;;;;;;;11.33;8.10;;;;;;;-143.84;56.17;45151.91;5095116;28;20471;-81
2022/12/30 07:21:45;;;;;;;18.10;9.73;;;;;;;-143.84;54.69;45138.56;5094840;28;20559;-81
2022/12/30 07:24:13;;;;;;;12.30;8.80;;;;;;;-143.84;53.94;45129.03;5094829;28;20440;-81
2022/12/30 07:26:40;;;;;;;14.10;8.80;;;;;;;-143.84;52.16;45138.56;5094729;28;20470;-83
2022/12/30 07:29:07;;;;;;;14.13;9.87;;;;;;;-143.84;51.44;45142.38;5094749;28;20416;-83
2022/12/30 07:31:36;;;;;;;10.30;7.87;;;;;;;-143.84;50.14;45123.34;5094739;28;20489;-82
2022/12/30 07:34:03;;;;;;;12.83;6.73;;;;;;;-143.84;49.66;45129.03;5094623;28;20560;-81
2022/12/30 07:36:30;;;;;;;7.40;6.57;;;;;;;-143.84;49.00;45138.56;5094446;28;20851;-83
2022/12/30 07:38:57;;;;;;;6.50;5.90;;;;;;;-143.84;48.65;45132.84;5094489;28;20520;-83
2022/12/30 07:41:25;;;;;;;7.17;6.40;;;;;;;-143.84;48.08;45123.34;5094628;28;20441;-83
2022/12/30 07:43:52;;;;;;;10.03;6.37;;;;;;;-143.84;47.97;45104.28;5094201;28;20973;-83
2022/12/30 07:46:20;;;;;;;7.23;6.50;;;;;;;-143.84;47.97;45123.34;5094299;28;20443;-83
2022/12/30 07:48:49;;;;;;;8.87;6.40;;;;;;;-143.84;46.79;45140.47;5094896;28;20469;-83
2022/12/30 07:51:18;;;;;;;7.80;7.00;;;;;;;-143.84;47.00;45117.63;5094335;28;20438;-83
2022/12/30 07:53:45;;;;;;;6.67;6.07;;;;;;;-143.84;46.00;45119.53;5094477;28;20515;-83
2022/12/30 07:56:14;;;;;;;8.90;5.87;;;;;;;-143.84;46.00;45121.44;5093903;28;20437;-83
2022/12/30 07:58:41;;;;;;;10.30;5.40;;;;;;;-143.84;45.94;45110.00;5093868;28;20493;-82
2022/12/30 08:01:12;;;;;;;5.93;5.50;;;;;;;-143.84;45.49;45136.66;5094824;28;20498;-83
2022/12/30 08:03:40;;;;;;;6.53;5.93;;;;;;;-143.84;44.58;45111.91;5094031;28;20449;-81
2022/12/30 08:06:11;;;;;;;7.80;5.63;;;;;;;-143.84;43.94;45111.91;5093038;28;20441;-80
2022/12/30 08:08:39;;;;;;;7.57;5.63;;;;;;;-143.84;43.21;45115.72;5094016;28;20450;-82
2022/12/30 08:11:09;;;;;;;10.10;6.57;;;;;;;-143.84;42.94;45100.47;5093966;28;20446;-81
2022/12/30 08:13:38;;;;;;;6.13;5.53;;;;;;;-143.84;42.38;45106.19;5094184;28;20450;-81
2022/12/30 08:16:05;;;;;;;7.47;5.73;;;;;;;-143.84;41.85;45092.88;5094064;28;20451;-81
2022/12/30 08:18:33;;;;;;;7.03;6.00;;;;;;;-143.84;41.43;45096.66;5093749;28;20432;-81
2022/12/30 08:21:01;;;;;;;10.10;6.63;;;;;;;-143.84;40.83;45102.38;5093476;28;20443;-81
2022/12/30 08:23:31;;;;;;;8.77;6.80;;;;;;;-143.84;40.68;45100.47;5093830;28;20872;-81
2022/12/30 08:26:03;;;;;;;6.83;6.13;;;;;;;-143.84;40.63;45111.91;5094025;28;20432;-80
2022/12/30 08:28:30;;;;;;;7.87;6.37;;;;;;;-143.84;40.53;45117.63;5093745;28;20489;-80
2022/12/30 08:30:57;;;;;;;7.93;6.93;;;;;;;-143.84;40.24;45117.63;5093647;28;20428;-80
2022/12/30 08:33:24;;;;;;;8.23;6.70;;;;;;;-143.84;40.22;45079.53;5093554;28;20836;-80
2022/12/30 08:35:52;;;;;;;7.33;6.63;;;;;;;-143.84;40.04;45073.81;5093817;28;20462;-80
2022/12/30 08:38:19;;;;;;;9.07;6.43;;;;;;;-143.84;40.13;45102.38;5094089;28;20489;-78
2022/12/30 08:40:47;;;;;;;13.00;5.87;;;;;;;-143.84;39.90;45079.53;5093409;28;20501;-78
2022/12/30 08:43:18;;;;;;;6.13;5.57;;;;;;;-143.84;39.35;45090.97;5093344;28;20444;-78
2022/12/30 08:45:45;;;;;;;15.27;5.90;;;;;;;-143.84;38.67;45077.63;5093284;28;20443;-78
2022/12/30 08:48:13;;;;;;;6.50;5.90;;;;;;;-143.84;38.59;45094.78;5093488;28;20444;-78
2022/12/30 08:50:41;;;;;;;8.90;7.03;;;;;;;-143.84;39.02;45106.19;5093517;28;20509;-78
2022/12/30 08:53:09;;;;;;;7.53;6.20;;;;;;;-143.84;38.57;45079.53;5093400;28;20983;-78
2022/12/30 08:55:36;;;;;;;7.97;6.90;;;;;;;-143.84;38.13;45096.66;5093033;28;20431;-78
2022/12/30 08:58:05;;;;;;;6.47;5.80;;;;;;;-143.84;37.39;45075.72;5092698;28;20475;-78
2022/12/30 09:00:33;;;;;;;8.10;6.77;;;;;;;-143.84;37.61;45083.34;5093317;28;20977;-77
2022/12/30 09:03:00;;;;;;;8.17;6.60;;;;;;;-143.84;37.43;45098.56;5093010;28;20436;-78
2022/12/30 09:05:27;;;;;;;10.80;6.60;;;;;;;-143.84;37.18;45068.13;5093358;28;20890;-78
2022/12/30 09:07:54;;;;;;;8.00;6.43;;;;;;;-143.84;37.56;45079.53;5092407;28;20436;-78
2022/12/30 09:10:21;;;;;;;8.93;5.60;;;;;;;-143.84;37.30;45085.25;5093052;28;20440;-78
2022/12/30 09:12:48;;;;;;;6.43;5.83;;;;;;;-143.84;37.18;45098.56;5092918;28;20424;-78
2022/12/30 09:15:17;;;;;;;7.50;5.60;;;;;;;-143.84;36.96;45077.63;5093085;28;20446;-78
2022/12/30 09:17:44;;;;;;;9.17;6.60;;;;;;;-143.84;37.18;45104.28;5093017;28;20568;-78
2022/12/30 09:20:33;;;;;;;;;;;;;;;;;;;;;
2022/12/30 09:23:01;;;;;;;6.50;5.90;;;;;;;-143.84;37.63;45058.59;5092603;28;20425;-78
2022/12/30 09:25:28;;;;;;;8.03;5.40;;;;;;;-143.84;37.54;45073.81;5092651;28;20436;-78
2022/12/30 09:27:55;;;;;;;7.87;5.03;;;;;;;-143.84;37.17;45073.81;5095674;28;20432;-83
2022/12/30 09:30:24;;;;;;;6.60;5.47;;;;;;;-143.84;36.70;45056.69;5097139;28;20462;-83
2022/12/30 09:32:51;;;;;;;9.80;6.03;;;;;;;-143.84;37.14;45068.13;5096357;28;20447;-82
2022/12/30 09:35:18;;;;;;;5.93;5.43;;;;;;;-143.84;36.61;45075.72;5096153;28;20867;-83
2022/12/30 09:37:45;;;;;;;6.30;5.80;;;;;;;-143.84;36.92;45077.63;5098369;28;20854;-83
2022/12/30 09:40:16;;;;;;;8.33;6.40;;;;;;;-143.84;36.71;45068.13;5098083;28;20475;-83
2022/12/30 09:45:41;;;;;;;7.40;6.10;;;;;;;-143.84;36.19;45071.91;5097905;28;20929;-82
2022/12/30 09:48:15;;;;;;;15.57;7.30;;;;;;;-143.84;36.64;45052.88;5098101;28;20435;-82
2022/12/30 09:50:46;;;;;;;7.23;5.20;;;;;;;-143.84;35.96;45089.06;5096097;28;20913;-83
2022/12/30 09:53:20;;;;;;;7.20;4.53;;;;;;;-143.84;35.98;45041.44;5096149;28;20428;-83
2022/12/30 09:55:53;;;;;;;6.90;5.27;;;;;;;-143.84;36.28;45073.81;5097788;28;20454;-83
2022/12/30 09:58:25;;;;;;;6.17;5.57;;;;;;;-143.84;36.30;45092.88;5097791;28;20498;-83
2022/12/30 10:00:54;;;;;;;8.20;5.33;;;;;;;-143.84;36.75;45094.78;5097929;28;20456;-83
2022/12/30 10:03:25;;;;;;;7.50;6.80;;;;;;;-143.84;36.53;45071.91;5098501;28;20493;-83
2022/12/30 10:06:08;;;;;;;5.83;5.30;;;;;;;-143.84;36.81;45087.16;5100790;28;20470;-83
2022/12/30 10:08:56;;;;;;;11.93;6.40;;;;;;;-143.84;36.56;45075.72;5100000;28;20509;-84
2022/12/30 10:11:30;;;;;;;8.33;5.63;;;;;;;-143.84;36.49;45081.44;5099499;28;20424;-86
2022/12/30 10:14:09;;;;;;;11.30;6.53;;;;;;;-143.84;37.13;45106.19;5098803;28;20924;-86
2022/12/30 10:16:50;;;;;;;16.90;12.00;;;;;;;-143.84;37.25;45077.63;5102745;28;20420;-85
2022/12/30 10:19:30;;;;;;;8.67;6.67;;;;;;;-143.84;37.05;45071.91;5102807;28;20471;-84
2022/12/30 10:22:03;;;;;;;8.87;6.93;;;;;;;-143.84;36.51;45129.03;5112526;28;20415;-84
2022/12/30 10:24:43;;;;;;;9.33;7.27;;;;;;;-143.84;37.08;45079.53;5113087;28;20435;-84
2022/12/30 10:27:18;;;;;;;9.20;6.83;;;;;;;-143.84;36.53;45083.34;5107191;28;20493;-84
2022/12/30 10:29:46;;;;;;;10.30;8.00;;;;;;;-143.84;36.10;45085.25;5108454;28;20496;-84
2022/12/30 10:32:20;;;;;;;9.90;8.20;;;;;;;-143.84;36.30;45089.06;5108340;28;20446;-84
2022/12/30 10:34:50;;;;;;;17.37;9.50;;;;;;;-143.84;37.12;45066.22;5110304;28;20388;-84
2022/12/30 10:37:25;;;;;;;15.73;11.70;;;;;;;-143.84;36.39;45075.72;5111033;28;20808;-84
2022/12/30 10:39:53;;;;;;;17.33;13.30;;;;;;;-143.84;37.03;45079.53;5112208;28;21087;-84
2022/12/30 10:42:35;;;;;;;24.20;15.03;;;;;;;-143.84;36.47;45073.81;5113667;28;20448;-84
2022/12/30 10:45:16;;;;;;;20.37;15.67;;;;;;;-143.84;36.90;45054.78;5113080;28;20400;-84
2022/12/30 10:47:57;;;;;;;27.50;17.07;;;;;;;-143.84;36.84;45064.31;5108813;28;20806;-84
2022/12/30 10:50:35;;;;;;;29.13;18.70;;;;;;;-143.84;37.31;45077.63;5103966;28;20964;-84
2022/12/30 10:53:06;;;;;;;22.80;15.87;;;;;;;-143.84;37.09;45052.88;5103161;28;20477;-84
2022/12/30 10:55:38;;;;;;;23.90;12.97;;;;;;;-143.84;36.16;45047.16;5108422;28;20444;-84
2022/12/30 10:58:12;;;;;;;23.03;12.83;;;;;;;-143.84;36.52;45050.97;5104806;28;20480;-84
2022/12/30 11:00:41;;;;;;;15.73;11.30;;;;;;;-143.84;36.67;45068.13;5109293;28;20460;-84
2022/12/30 11:03:21;;;;;;;28.70;17.00;;;;;;;-143.84;37.27;45106.19;5111079;28;20766;-84
2022/12/30 11:05:48;;;;;;;35.83;16.80;;;;;;;-143.84;37.07;45102.38;5110352;28;20412;-84
2022/12/30 11:08:22;;;;;;;21.73;15.00;;;;;;;-143.84;37.04;45047.16;5110346;28;20435;-84
2022/12/30 11:11:01;;;;;;;22.30;15.07;;;;;;;-143.84;37.06;45054.78;5107600;28;20435;-85
2022/12/30 11:16:24;;;;;;;28.67;16.57;;;;;;;-143.84;37.14;45085.25;5086679;28;20484;-85
2022/12/30 11:18:54;;;;;;;22.77;16.03;;;;;;;-143.84;37.04;45068.13;5106970;28;20964;-84
2022/12/30 11:21:26;;;;;;;19.50;14.43;;;;;;;-143.84;36.53;45071.91;5106784;28;20463;-84
2022/12/30 11:23:55;;;;;;;22.87;16.83;;;;;;;-143.84;36.70;45041.44;5105414;28;20455;-85
2022/12/30 11:26:24;;;;;;;31.50;18.30;;;;;;;-143.84;36.81;45073.81;5106395;28;20432;-84
2022/12/30 11:28:55;;;;;;;28.03;17.13;;;;;;;-143.84;37.10;45079.53;5103775;28;20420;-85
2022/12/30 11:31:30;;;;;;;22.23;16.63;;;;;;;-143.84;37.11;45108.09;5105888;28;20440;-84
2022/12/30 11:34:02;;;;;;;23.00;16.73;;;;;;;-143.84;37.27;45060.50;5105496;28;20913;-84
2022/12/30 11:36:37;;;;;;;33.77;18.17;;;;;;;-143.84;36.98;45081.44;5102646;28;20926;-84
2022/12/30 11:39:26;;;;;;;29.97;18.27;;;;;;;-143.84;37.32;45100.47;5101364;28;20431;-83
2022/12/30 11:41:56;;;;;;;17.77;14.23;;;;;;;-143.84;37.31;45045.25;5103780;28;21060;-83
2022/12/30 11:44:25;;;;;;;24.73;14.17;;;;;;;-143.84;37.06;45028.13;5094497;28;20437;-86
2022/12/30 11:46:55;;;;;;;13.20;11.07;;;;;;;-143.84;37.04;45102.38;5094518;28;20432;-87
2022/12/30 11:49:38;;;;;;;14.63;10.10;;;;;;;-143.84;37.08;45068.13;5094588;28;20501;-86
2022/12/30 11:52:11;;;;;;;18.93;11.20;;;;;;;-143.84;36.84;45083.34;5094366;28;20405;-87
2022/12/30 11:54:50;;;;;;;15.43;12.30;;;;;;;-143.84;36.94;45066.22;5094297;28;20431;-87
2022/12/30 11:57:22;;;;;;;16.53;11.50;;;;;;;-143.84;37.24;45081.44;5094035;28;20479;-87
2022/12/30 11:59:53;;;;;;;20.67;11.40;;;;;;;-143.84;37.61;45081.44;5094380;28;20468;-88
2022/12/30 12:02:25;;;;;;;11.30;10.17;;;;;;;-143.84;37.07;45110.00;5094516;28;20424;-87
2022/12/30 12:04:54;;;;;;;12.83;10.30;;;;;;;-143.84;37.22;45071.91;5094304;28;20490;-86
2022/12/30 12:07:25;;;;;;;18.00;12.83;;;;;;;-143.84;37.63;45075.72;5094200;28;20460;-87
2022/12/30 12:09:59;;;;;;;13.80;11.37;;;;;;;-143.84;37.69;45075.72;5094317;28;20957;-87
2022/12/30 12:12:30;;;;;;;20.40;12.37;;;;;;;-143.84;37.64;45075.72;5094266;28;20428;-87
2022/12/30 12:15:05;;;;;;;23.07;12.07;;;;;;;-143.84;37.27;45092.88;5093849;28;20431;-88
2022/12/30 12:17:43;;;;;;;19.50;12.73;;;;;;;-143.84;38.01;45050.97;5094116;28;20432;-87
2022/12/30 12:20:21;;;;;;;14.33;11.80;;;;;;;-143.84;38.26;45075.72;5094020;28;20468;-87
2022/12/30 12:23:01;;;;;;;18.50;11.87;;;;;;;-143.84;37.76;45100.47;5094059;28;20430;-87